Terminal Aerodrome Forecast
Issued by NWS

Home | Current Version | Previous Version | Text Only | Print | Product List | Glossary On
Versions: 1 2 3 4 5 6 7 8 9 10 11 12 13 14 15 16 17 18
000
FTUS43 KLSX 192300
TAFUIN
TAF
KUIN 192335Z 2000/2024 19006KT P6SM SCT250
     FM201500 21012KT P6SM SCT040 BKN250
     FM202100 23009KT P6SM VCTS BKN040CB=

USA.gov is the U.S. government's official web portal to all federal, state and local government web resources and services.